createdAt,value
2019-02-21T00:03:12.968Z,51.20
2019-02-21T00:08:17.906Z,51.30
2019-02-21T00:13:28.460Z,51.30
2019-02-21T00:18:33.155Z,51.50
2019-02-21T00:23:37.875Z,51.50
2019-02-21T00:28:44.620Z,51.60
2019-02-21T00:33:49.671Z,51.50
2019-02-21T00:38:54.601Z,52.30
2019-02-21T00:43:59.390Z,51.70
2019-02-21T00:49:04.588Z,51.70
2019-02-21T00:54:09.284Z,51.90
2019-02-21T00:59:13.997Z,52.00
2019-02-21T01:04:20.114Z,52.00
2019-02-21T01:09:24.828Z,52.00
2019-02-21T01:14:29.559Z,52.00
2019-02-21T01:19:34.352Z,52.00
2019-02-21T01:24:39.132Z,51.90
2019-02-21T01:29:44.153Z,51.60
2019-02-21T01:34:49.382Z,51.60
2019-02-21T01:39:54.088Z,51.60
2019-02-21T01:45:00.098Z,51.80
2019-02-21T01:50:08.696Z,51.80
2019-02-21T01:55:13.422Z,51.90
2019-02-21T02:00:18.297Z,52.00
2019-02-21T02:05:23.250Z,52.00
2019-02-21T02:10:30.659Z,51.80
2019-02-21T02:15:40.677Z,51.70
2019-02-21T02:20:43.844Z,51.70
2019-02-21T02:25:49.789Z,51.60
2019-02-21T02:30:56.054Z,51.70
2019-02-21T02:36:01.344Z,51.90
2019-02-21T02:41:06.434Z,52.00
2019-02-21T02:46:12.497Z,51.90
2019-02-21T02:51:17.537Z,52.00
2019-02-21T02:56:23.542Z,52.10
2019-02-21T03:01:34.727Z,52.10
2019-02-21T03:06:34.662Z,52.10
2019-02-21T03:11:44.202Z,51.90
2019-02-21T03:16:49.198Z,51.70
2019-02-21T03:21:53.925Z,51.80
2019-02-21T03:26:58.918Z,52.10
2019-02-21T03:32:03.639Z,52.20
2019-02-21T03:37:08.486Z,52.20
2019-02-21T03:42:13.503Z,52.10
2019-02-21T03:47:18.166Z,52.00
2019-02-21T03:52:23.963Z,51.90
2019-02-21T03:57:33.399Z,52.00
2019-02-21T04:02:38.371Z,52.20
2019-02-21T04:07:43.030Z,52.50
2019-02-21T04:12:47.669Z,52.60
2019-02-21T04:17:52.580Z,52.60
2019-02-21T04:22:57.459Z,52.60
2019-02-21T04:28:02.384Z,52.50
2019-02-21T04:33:08.328Z,53.20
2019-02-21T04:38:14.010Z,52.40
2019-02-21T04:43:18.650Z,52.30
2019-02-21T04:48:23.553Z,52.20
2019-02-21T04:53:28.185Z,52.30
2019-02-21T04:58:32.838Z,52.20
2019-02-21T05:03:38.144Z,52.30
2019-02-21T05:08:42.806Z,53.30
2019-02-21T05:13:47.755Z,52.80
2019-02-21T05:18:52.450Z,53.10
2019-02-21T05:23:57.417Z,53.30
2019-02-21T05:29:02.785Z,53.40
2019-02-21T05:34:12.763Z,53.40
2019-02-21T05:39:41.145Z,53.30
2019-02-21T05:44:54.228Z,53.20
2019-02-21T05:50:23.294Z,53.20
2019-02-21T05:55:47.026Z,53.40
2019-02-21T06:01:03.502Z,53.50
2019-02-21T06:06:45.422Z,53.50
2019-02-21T06:12:12.859Z,53.60
2019-02-21T06:17:36.591Z,54.20
2019-02-21T06:22:59.996Z,53.60
2019-02-21T06:28:15.964Z,53.80
2019-02-21T06:33:20.605Z,53.80
2019-02-21T06:38:25.499Z,53.80
2019-02-21T06:43:30.480Z,53.70
2019-02-21T06:48:42.267Z,53.70
2019-02-21T06:53:47.132Z,53.70
2019-02-21T06:58:52.037Z,53.80
2019-02-21T07:03:56.744Z,54.30
2019-02-21T07:09:01.383Z,54.20
2019-02-21T07:14:07.856Z,54.50
2019-02-21T07:25:57.950Z,54.80
2019-02-21T07:31:03.341Z,54.90
2019-02-21T07:36:08.024Z,55.00
2019-02-21T07:41:14.241Z,55.20
2019-02-21T07:46:18.864Z,55.40
2019-02-21T07:51:23.530Z,55.60
2019-02-21T07:56:41.185Z,55.50
2019-02-21T08:01:37.644Z,55.70
2019-02-21T08:06:42.293Z,55.90
2019-02-21T08:11:46.936Z,56.10
2019-02-21T08:16:51.594Z,55.90
2019-02-21T08:21:56.497Z,56.30
2019-02-21T08:27:02.271Z,56.20
2019-02-21T08:32:08.553Z,56.30
2019-02-21T08:37:13.205Z,56.30
2019-02-21T08:42:17.917Z,56.50
2019-02-21T08:47:23.938Z,56.60
2019-02-21T08:52:30.156Z,56.70
2019-02-21T08:57:34.981Z,56.70
2019-02-21T09:02:40.296Z,56.80
2019-02-21T09:07:46.457Z,57.00
2019-02-21T09:12:51.336Z,56.90
2019-02-21T09:17:55.989Z,57.00
2019-02-21T09:23:02.393Z,57.00
2019-02-21T09:28:08.860Z,57.10
2019-02-21T09:33:17.359Z,57.00
2019-02-21T09:38:20.093Z,57.10
2019-02-21T20:21:04.200Z,54.00
2019-02-21T20:26:17.864Z,54.10
2019-02-21T20:31:16.987Z,54.10
2019-02-21T20:36:22.092Z,54.10
2019-02-21T20:41:26.835Z,54.10
2019-02-21T20:46:31.813Z,54.10
2019-02-21T20:51:36.577Z,54.20
2019-02-21T20:56:41.502Z,54.20
2019-02-21T21:01:46.458Z,54.20
2019-02-21T21:06:51.181Z,54.30
2019-02-21T21:11:55.913Z,54.30
2019-02-21T21:17:00.813Z,54.30
2019-02-21T21:22:07.368Z,54.30
2019-02-21T21:27:12.040Z,54.50
2019-02-21T21:32:16.744Z,54.40
2019-02-21T21:37:24.628Z,54.50
2019-02-21T21:42:30.740Z,54.50
2019-02-21T21:47:36.753Z,54.70
2019-02-21T21:52:41.580Z,54.90
2019-02-21T21:57:46.395Z,55.00
2019-02-21T22:02:51.934Z,55.20
2019-02-21T22:07:56.826Z,55.10
2019-02-21T22:13:02.843Z,55.00
2019-02-21T22:18:10.424Z,55.10
2019-02-21T22:23:16.810Z,55.30
2019-02-21T22:28:21.593Z,55.40
2019-02-21T22:33:26.525Z,55.40
2019-02-21T22:38:31.258Z,55.50
2019-02-21T22:43:37.021Z,55.60
2019-02-21T22:48:47.165Z,55.60
2019-02-21T22:53:49.321Z,55.90
2019-02-21T22:58:55.601Z,55.90
2019-02-21T23:04:20.296Z,56.00
2019-02-21T23:09:27.831Z,56.00
2019-02-21T23:14:33.069Z,56.20
2019-02-21T23:19:38.281Z,56.20
2019-02-21T23:24:43.341Z,56.30
2019-02-21T23:29:49.706Z,56.30
2019-02-21T23:34:57.708Z,56.50
2019-02-21T23:40:04.280Z,56.60
2019-02-21T23:45:09.521Z,56.70
2019-02-21T23:50:16.451Z,56.60
2019-02-21T23:55:21.838Z,56.60
